Greenbush, Illinois
Current Conditions -  °F | °C
As of 4:15 AM on Thursday 23 Oct 2014 (Local Time) from KMQB Reporting Station
Clear Clear  
Wind Chill: 34°   Ceiling: Unl
Heat Index: 39°   Visibility: 10mi
Dew Point: 37°   Wind: 8mph
Humidity: 90%   Direction: 160°SSE
Pressure: 30.19"   Gusts: NA
Location:  40.6414°N, 90.4243°W
Report Text: KMQB 230915Z AUTO 16007KT 10SM CLR 04/03 A3019 RMK AO2 T00400025
Loading
Personal Weather Stations






























Interactive Weather Map
Tropical Storm Tracking
New forecast layout! Learn more

10-Day Weather Forecast

Advertisements
Track Severe Weather on mobile